sensor_id;sensor_type;location;lat;lon;timestamp;P1;durP1;ratioP1;P2;durP2;ratioP2
10687;SDS011;5392;42.688;23.298;2022-07-22T00:00:11;3.72;;;1.27;;
10687;SDS011;5392;42.688;23.298;2022-07-22T00:02:39;4.97;;;1.70;;
10687;SDS011;5392;42.688;23.298;2022-07-22T00:05:06;6.53;;;2.35;;
10687;SDS011;5392;42.688;23.298;2022-07-22T00:07:35;3.53;;;1.30;;
10687;SDS011;5392;42.688;23.298;2022-07-22T00:10:02;3.22;;;1.55;;
10687;SDS011;5392;42.688;23.298;2022-07-22T00:12:30;5.85;;;1.67;;
10687;SDS011;5392;42.688;23.298;2022-07-22T00:14:57;2.67;;;1.25;;
10687;SDS011;5392;42.688;23.298;2022-07-22T00:17:23;5.32;;;2.70;;
10687;SDS011;5392;42.688;23.298;2022-07-22T00:19:50;5.38;;;2.80;;
10687;SDS011;5392;42.688;23.298;2022-07-22T00:22:17;4.22;;;2.55;;
10687;SDS011;5392;42.688;23.298;2022-07-22T00:24:46;3.05;;;1.90;;
10687;SDS011;5392;42.688;23.298;2022-07-22T00:27:12;2.80;;;2.20;;
10687;SDS011;5392;42.688;23.298;2022-07-22T00:29:39;3.60;;;2.00;;
10687;SDS011;5392;42.688;23.298;2022-07-22T00:32:06;7.63;;;1.85;;
10687;SDS011;5392;42.688;23.298;2022-07-22T00:34:33;2.67;;;2.47;;
10687;SDS011;5392;42.688;23.298;2022-07-22T00:36:59;4.15;;;2.83;;
10687;SDS011;5392;42.688;23.298;2022-07-22T00:39:26;5.90;;;2.20;;
10687;SDS011;5392;42.688;23.298;2022-07-22T00:41:53;3.75;;;1.85;;
10687;SDS011;5392;42.688;23.298;2022-07-22T00:44:20;4.40;;;2.50;;
10687;SDS011;5392;42.688;23.298;2022-07-22T00:46:47;5.55;;;2.10;;
10687;SDS011;5392;42.688;23.298;2022-07-22T00:49:14;6.38;;;2.50;;
10687;SDS011;5392;42.688;23.298;2022-07-22T00:51:40;3.88;;;2.42;;
10687;SDS011;5392;42.688;23.298;2022-07-22T00:54:09;4.60;;;2.00;;
10687;SDS011;5392;42.688;23.298;2022-07-22T00:56:37;4.10;;;2.40;;
10687;SDS011;5392;42.688;23.298;2022-07-22T00:59:05;2.33;;;1.83;;
10687;SDS011;5392;42.688;23.298;2022-07-22T01:01:34;4.68;;;2.42;;
10687;SDS011;5392;42.688;23.298;2022-07-22T01:04:01;8.32;;;2.90;;
10687;SDS011;5392;42.688;23.298;2022-07-22T01:06:29;6.32;;;2.67;;
10687;SDS011;5392;42.688;23.298;2022-07-22T01:08:56;3.42;;;2.55;;
10687;SDS011;5392;42.688;23.298;2022-07-22T01:11:24;6.10;;;2.20;;
10687;SDS011;5392;42.688;23.298;2022-07-22T01:13:52;6.07;;;2.40;;
10687;SDS011;5392;42.688;23.298;2022-07-22T01:16:20;5.15;;;2.30;;
10687;SDS011;5392;42.688;23.298;2022-07-22T01:18:48;3.40;;;2.45;;
10687;SDS011;5392;42.688;23.298;2022-07-22T01:21:15;5.15;;;2.30;;
10687;SDS011;5392;42.688;23.298;2022-07-22T01:23:43;6.68;;;2.70;;
10687;SDS011;5392;42.688;23.298;2022-07-22T01:26:10;3.83;;;2.38;;
10687;SDS011;5392;42.688;23.298;2022-07-22T01:28:38;6.30;;;2.38;;
10687;SDS011;5392;42.688;23.298;2022-07-22T01:31:05;2.85;;;2.17;;
10687;SDS011;5392;42.688;23.298;2022-07-22T01:33:32;4.00;;;2.15;;
10687;SDS011;5392;42.688;23.298;2022-07-22T01:36:00;3.90;;;2.50;;
10687;SDS011;5392;42.688;23.298;2022-07-22T01:38:27;4.93;;;2.55;;
10687;SDS011;5392;42.688;23.298;2022-07-22T01:40:54;5.78;;;2.50;;
10687;SDS011;5392;42.688;23.298;2022-07-22T01:43:21;6.70;;;2.33;;
10687;SDS011;5392;42.688;23.298;2022-07-22T01:45:49;3.85;;;2.35;;
10687;SDS011;5392;42.688;23.298;2022-07-22T01:48:18;4.78;;;2.55;;
10687;SDS011;5392;42.688;23.298;2022-07-22T01:50:46;3.60;;;2.78;;
10687;SDS011;5392;42.688;23.298;2022-07-22T01:53:13;3.85;;;2.58;;
10687;SDS011;5392;42.688;23.298;2022-07-22T01:55:40;4.85;;;2.53;;
10687;SDS011;5392;42.688;23.298;2022-07-22T01:58:09;7.78;;;2.60;;
10687;SDS011;5392;42.688;23.298;2022-07-22T02:00:36;3.75;;;2.63;;
10687;SDS011;5392;42.688;23.298;2022-07-22T02:03:03;5.35;;;2.72;;
10687;SDS011;5392;42.688;23.298;2022-07-22T02:05:30;2.42;;;2.05;;
10687;SDS011;5392;42.688;23.298;2022-07-22T02:08:01;5.18;;;2.35;;
10687;SDS011;5392;42.688;23.298;2022-07-22T02:10:33;3.58;;;2.65;;
10687;SDS011;5392;42.688;23.298;2022-07-22T02:13:00;3.30;;;2.72;;
10687;SDS011;5392;42.688;23.298;2022-07-22T02:15:27;2.95;;;2.70;;
10687;SDS011;5392;42.688;23.298;2022-07-22T02:17:54;2.78;;;2.55;;
10687;SDS011;5392;42.688;23.298;2022-07-22T02:20:21;5.45;;;2.83;;
10687;SDS011;5392;42.688;23.298;2022-07-22T02:22:48;4.40;;;2.70;;
10687;SDS011;5392;42.688;23.298;2022-07-22T02:25:15;3.30;;;2.75;;
10687;SDS011;5392;42.688;23.298;2022-07-22T02:27:42;6.97;;;3.70;;
10687;SDS011;5392;42.688;23.298;2022-07-22T02:30:09;7.07;;;3.03;;
10687;SDS011;5392;42.688;23.298;2022-07-22T02:32:37;7.40;;;2.92;;
10687;SDS011;5392;42.688;23.298;2022-07-22T02:35:03;3.90;;;3.08;;
10687;SDS011;5392;42.688;23.298;2022-07-22T02:37:31;6.43;;;2.80;;
10687;SDS011;5392;42.688;23.298;2022-07-22T02:39:58;3.63;;;3.35;;
10687;SDS011;5392;42.688;23.298;2022-07-22T02:42:25;5.18;;;3.20;;
10687;SDS011;5392;42.688;23.298;2022-07-22T02:44:52;6.93;;;3.25;;
10687;SDS011;5392;42.688;23.298;2022-07-22T02:47:19;8.68;;;2.95;;
10687;SDS011;5392;42.688;23.298;2022-07-22T02:49:45;5.22;;;3.65;;
10687;SDS011;5392;42.688;23.298;2022-07-22T02:52:12;4.97;;;3.05;;
10687;SDS011;5392;42.688;23.298;2022-07-22T02:54:39;3.83;;;2.97;;
10687;SDS011;5392;42.688;23.298;2022-07-22T02:57:06;7.88;;;3.50;;
10687;SDS011;5392;42.688;23.298;2022-07-22T02:59:32;8.77;;;3.30;;
10687;SDS011;5392;42.688;23.298;2022-07-22T03:01:59;7.68;;;3.72;;
10687;SDS011;5392;42.688;23.298;2022-07-22T03:04:26;7.50;;;3.65;;
10687;SDS011;5392;42.688;23.298;2022-07-22T03:06:52;4.93;;;3.80;;
10687;SDS011;5392;42.688;23.298;2022-07-22T03:09:19;8.50;;;3.40;;
10687;SDS011;5392;42.688;23.298;2022-07-22T03:11:46;4.38;;;3.00;;
10687;SDS011;5392;42.688;23.298;2022-07-22T03:14:13;8.00;;;3.67;;
10687;SDS011;5392;42.688;23.298;2022-07-22T03:16:40;8.18;;;3.45;;
10687;SDS011;5392;42.688;23.298;2022-07-22T03:19:07;9.38;;;3.42;;
10687;SDS011;5392;42.688;23.298;2022-07-22T03:21:34;9.30;;;3.45;;
10687;SDS011;5392;42.688;23.298;2022-07-22T03:24:00;6.60;;;3.45;;
10687;SDS011;5392;42.688;23.298;2022-07-22T03:26:27;7.88;;;3.40;;
10687;SDS011;5392;42.688;23.298;2022-07-22T03:28:54;11.38;;;4.30;;
10687;SDS011;5392;42.688;23.298;2022-07-22T03:31:21;10.38;;;3.67;;
10687;SDS011;5392;42.688;23.298;2022-07-22T03:33:48;6.38;;;3.65;;
10687;SDS011;5392;42.688;23.298;2022-07-22T03:36:15;7.13;;;4.13;;
10687;SDS011;5392;42.688;23.298;2022-07-22T03:38:42;8.82;;;4.05;;
10687;SDS011;5392;42.688;23.298;2022-07-22T03:41:09;8.15;;;4.38;;
10687;SDS011;5392;42.688;23.298;2022-07-22T03:43:36;7.43;;;3.70;;
10687;SDS011;5392;42.688;23.298;2022-07-22T03:46:03;9.98;;;4.70;;
10687;SDS011;5392;42.688;23.298;2022-07-22T03:48:29;8.48;;;4.07;;
10687;SDS011;5392;42.688;23.298;2022-07-22T03:50:56;10.13;;;4.30;;
10687;SDS011;5392;42.688;23.298;2022-07-22T03:53:23;10.40;;;4.35;;
10687;SDS011;5392;42.688;23.298;2022-07-22T03:55:50;6.88;;;3.85;;
10687;SDS011;5392;42.688;23.298;2022-07-22T03:58:17;9.80;;;4.25;;
10687;SDS011;5392;42.688;23.298;2022-07-22T04:00:46;9.80;;;4.18;;
10687;SDS011;5392;42.688;23.298;2022-07-22T04:03:13;10.10;;;4.03;;
10687;SDS011;5392;42.688;23.298;2022-07-22T04:05:40;4.57;;;3.00;;
10687;SDS011;5392;42.688;23.298;2022-07-22T04:08:07;6.22;;;3.10;;
10687;SDS011;5392;42.688;23.298;2022-07-22T04:10:34;11.48;;;3.97;;
10687;SDS011;5392;42.688;23.298;2022-07-22T04:13:00;7.25;;;3.03;;
10687;SDS011;5392;42.688;23.298;2022-07-22T04:15:27;6.40;;;3.22;;
10687;SDS011;5392;42.688;23.298;2022-07-22T04:17:54;6.85;;;2.47;;
10687;SDS011;5392;42.688;23.298;2022-07-22T04:20:21;6.50;;;2.72;;
10687;SDS011;5392;42.688;23.298;2022-07-22T04:22:48;8.23;;;3.22;;
10687;SDS011;5392;42.688;23.298;2022-07-22T04:25:15;6.72;;;3.25;;
10687;SDS011;5392;42.688;23.298;2022-07-22T04:27:42;5.13;;;2.70;;
10687;SDS011;5392;42.688;23.298;2022-07-22T04:30:09;5.63;;;2.50;;
10687;SDS011;5392;42.688;23.298;2022-07-22T04:32:36;10.82;;;3.35;;
10687;SDS011;5392;42.688;23.298;2022-07-22T04:35:03;5.88;;;2.80;;
10687;SDS011;5392;42.688;23.298;2022-07-22T04:37:31;7.07;;;3.25;;
10687;SDS011;5392;42.688;23.298;2022-07-22T04:39:58;6.32;;;3.50;;
10687;SDS011;5392;42.688;23.298;2022-07-22T04:42:25;8.50;;;3.25;;
10687;SDS011;5392;42.688;23.298;2022-07-22T04:44:51;3.83;;;2.75;;
10687;SDS011;5392;42.688;23.298;2022-07-22T04:47:18;6.07;;;2.55;;
10687;SDS011;5392;42.688;23.298;2022-07-22T04:49:45;7.70;;;2.80;;
10687;SDS011;5392;42.688;23.298;2022-07-22T04:52:11;15.38;;;3.70;;
10687;SDS011;5392;42.688;23.298;2022-07-22T04:54:39;6.60;;;3.17;;
10687;SDS011;5392;42.688;23.298;2022-07-22T04:57:05;9.20;;;2.95;;
10687;SDS011;5392;42.688;23.298;2022-07-22T04:59:32;7.97;;;3.17;;
10687;SDS011;5392;42.688;23.298;2022-07-22T05:01:59;5.53;;;3.17;;
10687;SDS011;5392;42.688;23.298;2022-07-22T05:04:26;12.07;;;3.58;;
10687;SDS011;5392;42.688;23.298;2022-07-22T05:06:53;13.40;;;3.63;;
10687;SDS011;5392;42.688;23.298;2022-07-22T05:09:20;9.43;;;2.80;;
10687;SDS011;5392;42.688;23.298;2022-07-22T05:11:47;12.50;;;3.40;;
10687;SDS011;5392;42.688;23.298;2022-07-22T05:14:13;5.05;;;2.78;;
10687;SDS011;5392;42.688;23.298;2022-07-22T05:16:40;5.18;;;2.75;;
10687;SDS011;5392;42.688;23.298;2022-07-22T05:19:07;7.65;;;2.55;;
10687;SDS011;5392;42.688;23.298;2022-07-22T05:21:34;9.85;;;3.17;;
10687;SDS011;5392;42.688;23.298;2022-07-22T05:24:01;5.93;;;2.97;;
10687;SDS011;5392;42.688;23.298;2022-07-22T05:26:28;6.13;;;3.22;;
10687;SDS011;5392;42.688;23.298;2022-07-22T05:28:56;9.70;;;2.97;;
10687;SDS011;5392;42.688;23.298;2022-07-22T05:31:23;9.18;;;2.88;;
10687;SDS011;5392;42.688;23.298;2022-07-22T05:33:50;6.90;;;2.83;;
10687;SDS011;5392;42.688;23.298;2022-07-22T05:36:17;12.70;;;4.25;;
10687;SDS011;5392;42.688;23.298;2022-07-22T05:38:44;8.55;;;3.45;;
10687;SDS011;5392;42.688;23.298;2022-07-22T05:41:11;8.05;;;2.85;;
10687;SDS011;5392;42.688;23.298;2022-07-22T05:43:38;9.30;;;2.88;;
10687;SDS011;5392;42.688;23.298;2022-07-22T05:46:04;7.13;;;2.83;;
10687;SDS011;5392;42.688;23.298;2022-07-22T05:48:31;5.90;;;2.92;;
10687;SDS011;5392;42.688;23.298;2022-07-22T05:50:58;8.55;;;3.67;;
10687;SDS011;5392;42.688;23.298;2022-07-22T05:53:25;11.45;;;3.78;;
10687;SDS011;5392;42.688;23.298;2022-07-22T05:55:52;12.13;;;3.17;;
10687;SDS011;5392;42.688;23.298;2022-07-22T05:58:18;16.13;;;4.13;;
10687;SDS011;5392;42.688;23.298;2022-07-22T06:00:45;2.95;;;2.38;;
10687;SDS011;5392;42.688;23.298;2022-07-22T06:03:12;6.57;;;3.05;;
10687;SDS011;5392;42.688;23.298;2022-07-22T06:05:43;11.10;;;2.65;;
10687;SDS011;5392;42.688;23.298;2022-07-22T06:08:10;4.20;;;2.40;;
10687;SDS011;5392;42.688;23.298;2022-07-22T06:10:37;6.38;;;2.85;;
10687;SDS011;5392;42.688;23.298;2022-07-22T06:13:04;4.40;;;2.33;;
10687;SDS011;5392;42.688;23.298;2022-07-22T06:15:30;3.17;;;2.97;;
10687;SDS011;5392;42.688;23.298;2022-07-22T06:17:57;8.48;;;3.22;;
10687;SDS011;5392;42.688;23.298;2022-07-22T06:20:24;7.15;;;2.80;;
10687;SDS011;5392;42.688;23.298;2022-07-22T06:22:51;4.70;;;2.92;;
10687;SDS011;5392;42.688;23.298;2022-07-22T06:25:18;7.80;;;2.65;;
10687;SDS011;5392;42.688;23.298;2022-07-22T06:28:05;4.55;;;2.45;;
10687;SDS011;5392;42.688;23.298;2022-07-22T06:30:31;14.65;;;3.05;;
10687;SDS011;5392;42.688;23.298;2022-07-22T06:32:58;4.88;;;2.30;;
10687;SDS011;5392;42.688;23.298;2022-07-22T06:35:25;7.72;;;2.15;;
10687;SDS011;5392;42.688;23.298;2022-07-22T06:37:52;9.40;;;2.53;;
10687;SDS011;5392;42.688;23.298;2022-07-22T06:40:31;7.75;;;2.80;;
10687;SDS011;5392;42.688;23.298;2022-07-22T06:42:58;5.65;;;2.22;;
10687;SDS011;5392;42.688;23.298;2022-07-22T06:45:25;5.38;;;2.10;;
10687;SDS011;5392;42.688;23.298;2022-07-22T06:47:51;10.25;;;2.70;;
10687;SDS011;5392;42.688;23.298;2022-07-22T06:50:19;8.25;;;2.90;;
10687;SDS011;5392;42.688;23.298;2022-07-22T06:52:46;3.58;;;2.13;;
10687;SDS011;5392;42.688;23.298;2022-07-22T06:55:15;6.03;;;2.72;;
10687;SDS011;5392;42.688;23.298;2022-07-22T06:57:41;5.03;;;2.10;;
10687;SDS011;5392;42.688;23.298;2022-07-22T07:00:08;8.93;;;2.35;;
10687;SDS011;5392;42.688;23.298;2022-07-22T07:02:36;9.82;;;2.33;;
10687;SDS011;5392;42.688;23.298;2022-07-22T07:05:03;4.15;;;1.85;;
10687;SDS011;5392;42.688;23.298;2022-07-22T07:07:30;3.45;;;2.05;;
10687;SDS011;5392;42.688;23.298;2022-07-22T07:10:02;3.30;;;1.83;;
10687;SDS011;5392;42.688;23.298;2022-07-22T07:12:34;9.23;;;2.58;;
10687;SDS011;5392;42.688;23.298;2022-07-22T07:15:03;6.57;;;2.30;;
10687;SDS011;5392;42.688;23.298;2022-07-22T07:17:50;3.95;;;1.80;;
10687;SDS011;5392;42.688;23.298;2022-07-22T07:20:18;4.20;;;1.90;;
10687;SDS011;5392;42.688;23.298;2022-07-22T07:22:45;3.25;;;1.77;;
10687;SDS011;5392;42.688;23.298;2022-07-22T07:25:12;6.00;;;2.28;;
10687;SDS011;5392;42.688;23.298;2022-07-22T07:27:49;6.90;;;2.17;;
10687;SDS011;5392;42.688;23.298;2022-07-22T07:30:19;6.85;;;1.67;;
10687;SDS011;5392;42.688;23.298;2022-07-22T07:32:46;6.53;;;2.28;;
10687;SDS011;5392;42.688;23.298;2022-07-22T07:35:13;3.22;;;1.80;;
10687;SDS011;5392;42.688;23.298;2022-07-22T07:37:40;9.23;;;1.95;;
10687;SDS011;5392;42.688;23.298;2022-07-22T07:40:07;4.82;;;1.90;;
10687;SDS011;5392;42.688;23.298;2022-07-22T07:42:35;8.40;;;2.63;;
10687;SDS011;5392;42.688;23.298;2022-07-22T07:45:11;4.13;;;1.42;;
10687;SDS011;5392;42.688;23.298;2022-07-22T07:47:38;4.15;;;1.65;;
10687;SDS011;5392;42.688;23.298;2022-07-22T07:50:08;5.35;;;1.50;;
10687;SDS011;5392;42.688;23.298;2022-07-22T07:52:43;2.03;;;0.95;;
10687;SDS011;5392;42.688;23.298;2022-07-22T07:55:18;4.05;;;1.13;;
10687;SDS011;5392;42.688;23.298;2022-07-22T07:57:46;2.47;;;1.20;;
10687;SDS011;5392;42.688;23.298;2022-07-22T08:00:18;5.80;;;1.30;;
10687;SDS011;5392;42.688;23.298;2022-07-22T08:02:49;2.35;;;1.00;;
10687;SDS011;5392;42.688;23.298;2022-07-22T08:05:16;4.18;;;1.08;;
10687;SDS011;5392;42.688;23.298;2022-07-22T08:07:46;4.57;;;1.02;;
10687;SDS011;5392;42.688;23.298;2022-07-22T08:10:15;4.97;;;1.05;;
10687;SDS011;5392;42.688;23.298;2022-07-22T08:13:02;3.47;;;0.93;;
10687;SDS011;5392;42.688;23.298;2022-07-22T08:15:30;2.40;;;0.80;;
10687;SDS011;5392;42.688;23.298;2022-07-22T08:17:58;3.25;;;1.00;;
10687;SDS011;5392;42.688;23.298;2022-07-22T08:20:26;3.72;;;0.95;;
10687;SDS011;5392;42.688;23.298;2022-07-22T08:22:56;1.88;;;0.93;;
10687;SDS011;5392;42.688;23.298;2022-07-22T08:25:23;5.20;;;1.38;;
10687;SDS011;5392;42.688;23.298;2022-07-22T08:27:50;7.40;;;1.50;;
10687;SDS011;5392;42.688;23.298;2022-07-22T08:30:17;1.75;;;1.00;;
10687;SDS011;5392;42.688;23.298;2022-07-22T08:32:44;8.13;;;1.83;;
10687;SDS011;5392;42.688;23.298;2022-07-22T08:35:11;5.07;;;1.10;;
10687;SDS011;5392;42.688;23.298;2022-07-22T08:37:38;4.10;;;0.93;;
10687;SDS011;5392;42.688;23.298;2022-07-22T08:40:05;5.95;;;1.05;;
10687;SDS011;5392;42.688;23.298;2022-07-22T08:42:36;4.25;;;0.80;;
10687;SDS011;5392;42.688;23.298;2022-07-22T08:45:07;9.32;;;1.20;;
10687;SDS011;5392;42.688;23.298;2022-07-22T08:47:46;1.60;;;1.10;;
10687;SDS011;5392;42.688;23.298;2022-07-22T08:50:15;2.10;;;1.10;;
10687;SDS011;5392;42.688;23.298;2022-07-22T08:52:43;2.20;;;0.82;;
10687;SDS011;5392;42.688;23.298;2022-07-22T08:55:10;2.88;;;1.13;;
10687;SDS011;5392;42.688;23.298;2022-07-22T08:57:36;6.97;;;1.25;;
10687;SDS011;5392;42.688;23.298;2022-07-22T09:00:10;2.25;;;0.93;;
10687;SDS011;5392;42.688;23.298;2022-07-22T09:02:40;2.95;;;0.77;;
10687;SDS011;5392;42.688;23.298;2022-07-22T09:05:12;4.50;;;1.20;;
10687;SDS011;5392;42.688;23.298;2022-07-22T09:08:00;2.40;;;0.93;;
10687;SDS011;5392;42.688;23.298;2022-07-22T09:10:31;2.45;;;0.90;;
10687;SDS011;5392;42.688;23.298;2022-07-22T09:13:01;3.78;;;1.23;;
10687;SDS011;5392;42.688;23.298;2022-07-22T09:15:30;4.00;;;1.30;;
10687;SDS011;5392;42.688;23.298;2022-07-22T09:18:03;1.83;;;1.10;;
10687;SDS011;5392;42.688;23.298;2022-07-22T09:20:32;8.05;;;1.20;;
10687;SDS011;5392;42.688;23.298;2022-07-22T09:23:00;2.08;;;1.40;;
10687;SDS011;5392;42.688;23.298;2022-07-22T09:25:35;4.93;;;0.90;;
10687;SDS011;5392;42.688;23.298;2022-07-22T09:30:39;2.10;;;0.90;;
10687;SDS011;5392;42.688;23.298;2022-07-22T09:33:19;4.20;;;1.00;;
10687;SDS011;5392;42.688;23.298;2022-07-22T09:35:47;5.35;;;1.30;;
10687;SDS011;5392;42.688;23.298;2022-07-22T09:38:16;3.60;;;1.23;;
10687;SDS011;5392;42.688;23.298;2022-07-22T09:40:45;3.60;;;1.23;;
10687;SDS011;5392;42.688;23.298;2022-07-22T09:43:14;4.97;;;1.50;;
10687;SDS011;5392;42.688;23.298;2022-07-22T09:45:47;1.17;;;1.10;;
10687;SDS011;5392;42.688;23.298;2022-07-22T09:48:21;4.20;;;0.80;;
10687;SDS011;5392;42.688;23.298;2022-07-22T09:50:48;5.28;;;1.25;;
10687;SDS011;5392;42.688;23.298;2022-07-22T09:53:17;2.22;;;0.93;;
10687;SDS011;5392;42.688;23.298;2022-07-22T09:55:46;2.80;;;1.10;;
10687;SDS011;5392;42.688;23.298;2022-07-22T09:58:13;4.78;;;1.17;;
10687;SDS011;5392;42.688;23.298;2022-07-22T10:00:40;3.13;;;0.90;;
10687;SDS011;5392;42.688;23.298;2022-07-22T10:03:10;3.33;;;0.90;;
10687;SDS011;5392;42.688;23.298;2022-07-22T10:05:42;1.17;;;0.95;;
10687;SDS011;5392;42.688;23.298;2022-07-22T10:08:09;4.72;;;1.15;;
10687;SDS011;5392;42.688;23.298;2022-07-22T10:10:38;4.82;;;0.93;;
10687;SDS011;5392;42.688;23.298;2022-07-22T10:13:06;5.68;;;1.25;;
10687;SDS011;5392;42.688;23.298;2022-07-22T10:15:34;2.25;;;0.90;;
10687;SDS011;5392;42.688;23.298;2022-07-22T10:18:06;4.38;;;1.00;;
10687;SDS011;5392;42.688;23.298;2022-07-22T10:20:39;2.70;;;0.90;;
10687;SDS011;5392;42.688;23.298;2022-07-22T10:23:07;3.60;;;0.65;;
10687;SDS011;5392;42.688;23.298;2022-07-22T10:25:53;1.00;;;0.93;;
10687;SDS011;5392;42.688;23.298;2022-07-22T10:28:26;1.02;;;0.85;;
10687;SDS011;5392;42.688;23.298;2022-07-22T10:31:34;2.45;;;1.08;;
10687;SDS011;5392;42.688;23.298;2022-07-22T10:33:54;5.28;;;1.00;;
10687;SDS011;5392;42.688;23.298;2022-07-22T10:36:33;2.97;;;1.55;;
10687;SDS011;5392;42.688;23.298;2022-07-22T10:39:09;2.20;;;0.88;;
10687;SDS011;5392;42.688;23.298;2022-07-22T10:41:41;6.28;;;1.17;;
10687;SDS011;5392;42.688;23.298;2022-07-22T10:53:10;10.02;;;1.10;;
10687;SDS011;5392;42.688;23.298;2022-07-22T10:56:00;4.22;;;1.17;;
10687;SDS011;5392;42.688;23.298;2022-07-22T10:58:55;6.05;;;1.15;;
10687;SDS011;5392;42.688;23.298;2022-07-22T11:01:27;1.15;;;0.88;;
10687;SDS011;5392;42.688;23.298;2022-07-22T11:04:08;4.50;;;1.25;;
10687;SDS011;5392;42.688;23.298;2022-07-22T11:06:43;5.25;;;1.08;;
10687;SDS011;5392;42.688;23.298;2022-07-22T11:09:12;1.42;;;0.90;;
10687;SDS011;5392;42.688;23.298;2022-07-22T11:11:47;5.53;;;1.50;;
10687;SDS011;5392;42.688;23.298;2022-07-22T11:14:19;0.80;;;0.80;;
10687;SDS011;5392;42.688;23.298;2022-07-22T11:17:14;1.70;;;0.95;;
10687;SDS011;5392;42.688;23.298;2022-07-22T11:19:40;2.08;;;1.20;;
10687;SDS011;5392;42.688;23.298;2022-07-22T11:22:08;1.90;;;0.90;;
10687;SDS011;5392;42.688;23.298;2022-07-22T11:24:37;2.90;;;0.98;;
10687;SDS011;5392;42.688;23.298;2022-07-22T11:27:16;0.88;;;0.85;;
10687;SDS011;5392;42.688;23.298;2022-07-22T11:29:47;0.90;;;0.90;;
10687;SDS011;5392;42.688;23.298;2022-07-22T11:32:14;1.75;;;0.77;;
10687;SDS011;5392;42.688;23.298;2022-07-22T11:34:45;3.08;;;0.90;;
10687;SDS011;5392;42.688;23.298;2022-07-22T11:37:17;1.77;;;0.80;;
10687;SDS011;5392;42.688;23.298;2022-07-22T11:39:50;2.88;;;1.00;;
10687;SDS011;5392;42.688;23.298;2022-07-22T11:42:17;4.32;;;1.00;;
10687;SDS011;5392;42.688;23.298;2022-07-22T11:44:44;1.38;;;0.90;;
10687;SDS011;5392;42.688;23.298;2022-07-22T11:47:17;6.78;;;1.10;;
10687;SDS011;5392;42.688;23.298;2022-07-22T11:49:46;4.32;;;0.88;;
10687;SDS011;5392;42.688;23.298;2022-07-22T11:52:16;2.60;;;0.80;;
10687;SDS011;5392;42.688;23.298;2022-07-22T11:54:43;2.85;;;0.90;;
10687;SDS011;5392;42.688;23.298;2022-07-22T11:57:11;2.00;;;1.00;;
10687;SDS011;5392;42.688;23.298;2022-07-22T11:59:39;3.45;;;0.88;;
10687;SDS011;5392;42.688;23.298;2022-07-22T12:02:06;2.10;;;1.08;;
10687;SDS011;5392;42.688;23.298;2022-07-22T12:04:36;2.72;;;0.95;;
10687;SDS011;5392;42.688;23.298;2022-07-22T12:07:04;1.77;;;0.80;;
10687;SDS011;5392;42.688;23.298;2022-07-22T12:09:34;2.42;;;1.00;;
10687;SDS011;5392;42.688;23.298;2022-07-22T12:12:03;2.90;;;0.90;;
10687;SDS011;5392;42.688;23.298;2022-07-22T12:14:31;1.95;;;0.80;;
10687;SDS011;5392;42.688;23.298;2022-07-22T12:16:59;2.08;;;1.30;;
10687;SDS011;5392;42.688;23.298;2022-07-22T12:19:32;0.90;;;0.90;;
10687;SDS011;5392;42.688;23.298;2022-07-22T12:24:44;3.00;;;0.90;;
10687;SDS011;5392;42.688;23.298;2022-07-22T12:27:21;3.20;;;0.90;;
10687;SDS011;5392;42.688;23.298;2022-07-22T12:29:48;1.95;;;0.88;;
10687;SDS011;5392;42.688;23.298;2022-07-22T12:40:08;4.63;;;0.90;;
10687;SDS011;5392;42.688;23.298;2022-07-22T12:42:42;2.35;;;1.02;;
10687;SDS011;5392;42.688;23.298;2022-07-22T12:50:24;3.55;;;1.00;;
10687;SDS011;5392;42.688;23.298;2022-07-22T12:55:53;3.47;;;1.05;;
10687;SDS011;5392;42.688;23.298;2022-07-22T12:58:29;1.98;;;0.80;;
10687;SDS011;5392;42.688;23.298;2022-07-22T13:00:59;1.60;;;1.13;;
10687;SDS011;5392;42.688;23.298;2022-07-22T13:03:27;1.67;;;1.20;;
10687;SDS011;5392;42.688;23.298;2022-07-22T13:05:55;2.05;;;0.90;;
10687;SDS011;5392;42.688;23.298;2022-07-22T13:08:24;3.40;;;0.90;;
10687;SDS011;5392;42.688;23.298;2022-07-22T13:10:55;1.25;;;0.98;;
10687;SDS011;5392;42.688;23.298;2022-07-22T13:13:22;2.35;;;0.80;;
10687;SDS011;5392;42.688;23.298;2022-07-22T13:15:49;3.33;;;1.00;;
10687;SDS011;5392;42.688;23.298;2022-07-22T13:18:17;1.00;;;1.00;;
10687;SDS011;5392;42.688;23.298;2022-07-22T13:20:45;4.22;;;0.85;;
10687;SDS011;5392;42.688;23.298;2022-07-22T13:23:13;0.73;;;0.73;;
10687;SDS011;5392;42.688;23.298;2022-07-22T13:25:40;0.77;;;0.77;;
10687;SDS011;5392;42.688;23.298;2022-07-22T13:28:07;1.60;;;1.13;;
10687;SDS011;5392;42.688;23.298;2022-07-22T13:30:33;2.55;;;0.80;;
10687;SDS011;5392;42.688;23.298;2022-07-22T13:33:00;2.33;;;0.85;;
10687;SDS011;5392;42.688;23.298;2022-07-22T13:35:27;1.35;;;0.90;;
10687;SDS011;5392;42.688;23.298;2022-07-22T13:37:56;2.95;;;0.80;;
10687;SDS011;5392;42.688;23.298;2022-07-22T13:40:24;1.70;;;0.80;;
10687;SDS011;5392;42.688;23.298;2022-07-22T13:42:51;2.60;;;0.70;;
10687;SDS011;5392;42.688;23.298;2022-07-22T13:45:18;2.58;;;0.95;;
10687;SDS011;5392;42.688;23.298;2022-07-22T13:47:44;2.75;;;0.88;;
10687;SDS011;5392;42.688;23.298;2022-07-22T13:50:11;2.72;;;1.10;;
10687;SDS011;5392;42.688;23.298;2022-07-22T13:52:38;2.97;;;0.82;;
10687;SDS011;5392;42.688;23.298;2022-07-22T13:55:05;1.73;;;0.98;;
10687;SDS011;5392;42.688;23.298;2022-07-22T13:57:32;1.20;;;0.93;;
10687;SDS011;5392;42.688;23.298;2022-07-22T14:00:00;4.55;;;0.95;;
10687;SDS011;5392;42.688;23.298;2022-07-22T14:02:28;2.75;;;0.98;;
10687;SDS011;5392;42.688;23.298;2022-07-22T14:04:55;1.20;;;1.10;;
10687;SDS011;5392;42.688;23.298;2022-07-22T14:07:22;0.80;;;0.77;;
10687;SDS011;5392;42.688;23.298;2022-07-22T14:09:49;1.45;;;0.75;;
10687;SDS011;5392;42.688;23.298;2022-07-22T14:12:15;3.30;;;1.00;;
10687;SDS011;5392;42.688;23.298;2022-07-22T14:14:43;1.63;;;0.75;;
10687;SDS011;5392;42.688;23.298;2022-07-22T14:17:10;4.65;;;1.00;;
10687;SDS011;5392;42.688;23.298;2022-07-22T14:19:38;1.15;;;1.00;;
10687;SDS011;5392;42.688;23.298;2022-07-22T14:22:05;2.15;;;0.70;;
10687;SDS011;5392;42.688;23.298;2022-07-22T14:24:32;3.80;;;0.98;;
10687;SDS011;5392;42.688;23.298;2022-07-22T14:26:59;1.42;;;0.85;;
10687;SDS011;5392;42.688;23.298;2022-07-22T14:29:25;1.25;;;0.70;;
10687;SDS011;5392;42.688;23.298;2022-07-22T14:31:52;4.70;;;1.13;;
10687;SDS011;5392;42.688;23.298;2022-07-22T14:34:19;2.97;;;0.90;;
10687;SDS011;5392;42.688;23.298;2022-07-22T14:36:46;0.70;;;0.70;;
10687;SDS011;5392;42.688;23.298;2022-07-22T14:39:13;1.25;;;0.80;;
10687;SDS011;5392;42.688;23.298;2022-07-22T14:41:40;1.33;;;0.70;;
10687;SDS011;5392;42.688;23.298;2022-07-22T14:44:07;2.55;;;0.90;;
10687;SDS011;5392;42.688;23.298;2022-07-22T14:46:33;0.95;;;0.77;;
10687;SDS011;5392;42.688;23.298;2022-07-22T14:49:00;4.38;;;1.00;;
10687;SDS011;5392;42.688;23.298;2022-07-22T14:51:27;1.35;;;0.90;;
10687;SDS011;5392;42.688;23.298;2022-07-22T14:56:39;2.40;;;0.70;;
10687;SDS011;5392;42.688;23.298;2022-07-22T14:59:06;1.92;;;0.77;;
10687;SDS011;5392;42.688;23.298;2022-07-22T15:01:33;8.57;;;1.10;;
10687;SDS011;5392;42.688;23.298;2022-07-22T15:04:00;3.70;;;0.70;;
10687;SDS011;5392;42.688;23.298;2022-07-22T15:06:28;2.15;;;0.80;;
10687;SDS011;5392;42.688;23.298;2022-07-22T15:08:54;1.95;;;0.90;;
10687;SDS011;5392;42.688;23.298;2022-07-22T15:11:21;2.45;;;0.70;;
10687;SDS011;5392;42.688;23.298;2022-07-22T15:13:48;2.72;;;0.80;;
10687;SDS011;5392;42.688;23.298;2022-07-22T15:16:15;0.82;;;0.82;;
10687;SDS011;5392;42.688;23.298;2022-07-22T15:18:42;2.03;;;0.70;;
10687;SDS011;5392;42.688;23.298;2022-07-22T15:21:08;2.08;;;0.70;;
10687;SDS011;5392;42.688;23.298;2022-07-22T15:23:35;2.85;;;0.80;;
10687;SDS011;5392;42.688;23.298;2022-07-22T15:26:02;3.15;;;0.98;;
10687;SDS011;5392;42.688;23.298;2022-07-22T15:28:29;1.83;;;0.88;;